sensor_id;sensor_type;location;lat;lon;timestamp;temperature;humidity
20035;DHT22;10178;48.034;9.800;2023-01-25T00:02:16;3.00;99.90
20035;DHT22;10178;48.034;9.800;2023-01-25T00:04:42;2.90;99.90
20035;DHT22;10178;48.034;9.800;2023-01-25T00:07:08;2.90;99.90
20035;DHT22;10178;48.034;9.800;2023-01-25T00:09:33;2.90;99.90
20035;DHT22;10178;48.034;9.800;2023-01-25T00:11:59;2.90;99.90
20035;DHT22;10178;48.034;9.800;2023-01-25T00:14:24;3.00;99.90
20035;DHT22;10178;48.034;9.800;2023-01-25T00:16:50;2.70;99.90
20035;DHT22;10178;48.034;9.800;2023-01-25T00:19:16;2.70;99.90
20035;DHT22;10178;48.034;9.800;2023-01-25T00:21:41;2.80;99.90
20035;DHT22;10178;48.034;9.800;2023-01-25T00:24:07;2.80;99.90
20035;DHT22;10178;48.034;9.800;2023-01-25T00:26:36;2.80;99.90
20035;DHT22;10178;48.034;9.800;2023-01-25T00:29:02;2.90;99.90
20035;DHT22;10178;48.034;9.800;2023-01-25T00:40:10;2.40;99.90
20035;DHT22;10178;48.034;9.800;2023-01-25T00:42:36;2.50;99.90
20035;DHT22;10178;48.034;9.800;2023-01-25T00:45:01;2.60;99.90
20035;DHT22;10178;48.034;9.800;2023-01-25T00:47:28;2.70;99.90
20035;DHT22;10178;48.034;9.800;2023-01-25T00:49:53;2.60;99.90
20035;DHT22;10178;48.034;9.800;2023-01-25T00:52:19;2.70;99.90
20035;DHT22;10178;48.034;9.800;2023-01-25T00:54:46;2.70;99.90
20035;DHT22;10178;48.034;9.800;2023-01-25T00:57:12;2.70;99.90
20035;DHT22;10178;48.034;9.800;2023-01-25T00:59:37;2.80;99.90
20035;DHT22;10178;48.034;9.800;2023-01-25T01:02:03;2.80;99.90
20035;DHT22;10178;48.034;9.800;2023-01-25T01:04:29;2.80;99.90
20035;DHT22;10178;48.034;9.800;2023-01-25T01:06:55;2.90;99.90
20035;DHT22;10178;48.034;9.800;2023-01-25T01:09:22;2.80;99.90
20035;DHT22;10178;48.034;9.800;2023-01-25T01:11:48;3.00;99.90
20035;DHT22;10178;48.034;9.800;2023-01-25T01:14:14;3.00;99.90
20035;DHT22;10178;48.034;9.800;2023-01-25T01:16:40;2.70;99.90
20035;DHT22;10178;48.034;9.800;2023-01-25T01:19:05;2.80;99.90
20035;DHT22;10178;48.034;9.800;2023-01-25T01:21:31;2.80;99.90
20035;DHT22;10178;48.034;9.800;2023-01-25T01:23:57;2.60;99.90
20035;DHT22;10178;48.034;9.800;2023-01-25T01:26:23;2.60;99.90
20035;DHT22;10178;48.034;9.800;2023-01-25T01:28:49;2.60;99.90
20035;DHT22;10178;48.034;9.800;2023-01-25T01:31:20;2.10;99.90
20035;DHT22;10178;48.034;9.800;2023-01-25T01:33:54;1.90;99.90
20035;DHT22;10178;48.034;9.800;2023-01-25T01:36:25;2.10;99.90
20035;DHT22;10178;48.034;9.800;2023-01-25T01:38:51;2.30;99.90
20035;DHT22;10178;48.034;9.800;2023-01-25T01:41:18;2.50;99.90
20035;DHT22;10178;48.034;9.800;2023-01-25T01:43:44;2.60;99.90
20035;DHT22;10178;48.034;9.800;2023-01-25T01:49:14;2.70;99.90
20035;DHT22;10178;48.034;9.800;2023-01-25T01:51:51;2.20;99.90
20035;DHT22;10178;48.034;9.800;2023-01-25T01:54:35;1.80;99.90
20035;DHT22;10178;48.034;9.800;2023-01-25T01:57:14;1.90;99.90
20035;DHT22;10178;48.034;9.800;2023-01-25T01:59:51;2.20;99.90
20035;DHT22;10178;48.034;9.800;2023-01-25T02:02:18;2.10;99.90
20035;DHT22;10178;48.034;9.800;2023-01-25T02:04:46;2.20;99.90
20035;DHT22;10178;48.034;9.800;2023-01-25T02:07:20;2.40;99.90
20035;DHT22;10178;48.034;9.800;2023-01-25T02:09:49;2.50;99.90
20035;DHT22;10178;48.034;9.800;2023-01-25T02:12:15;2.60;99.90
20035;DHT22;10178;48.034;9.800;2023-01-25T02:14:46;2.60;99.90
20035;DHT22;10178;48.034;9.800;2023-01-25T02:17:12;2.40;99.90
20035;DHT22;10178;48.034;9.800;2023-01-25T02:22:53;2.10;99.90
20035;DHT22;10178;48.034;9.800;2023-01-25T02:25:20;2.10;99.90
20035;DHT22;10178;48.034;9.800;2023-01-25T02:28:01;2.20;99.90
20035;DHT22;10178;48.034;9.800;2023-01-25T02:30:28;2.20;99.90
20035;DHT22;10178;48.034;9.800;2023-01-25T02:32:55;2.40;99.90
20035;DHT22;10178;48.034;9.800;2023-01-25T02:35:23;2.50;99.90
20035;DHT22;10178;48.034;9.800;2023-01-25T02:37:49;2.60;99.90
20035;DHT22;10178;48.034;9.800;2023-01-25T02:40:16;2.60;99.90
20035;DHT22;10178;48.034;9.800;2023-01-25T02:42:43;2.70;99.90
20035;DHT22;10178;48.034;9.800;2023-01-25T02:45:13;2.70;99.90
20035;DHT22;10178;48.034;9.800;2023-01-25T02:47:40;2.80;99.90
20035;DHT22;10178;48.034;9.800;2023-01-25T02:50:06;2.70;99.90
20035;DHT22;10178;48.034;9.800;2023-01-25T02:52:32;2.30;99.90
20035;DHT22;10178;48.034;9.800;2023-01-25T02:54:58;2.40;99.90
20035;DHT22;10178;48.034;9.800;2023-01-25T02:57:23;2.30;99.90
20035;DHT22;10178;48.034;9.800;2023-01-25T02:59:49;2.00;99.90
20035;DHT22;10178;48.034;9.800;2023-01-25T03:02:14;1.80;99.90
20035;DHT22;10178;48.034;9.800;2023-01-25T03:04:40;1.90;99.90
20035;DHT22;10178;48.034;9.800;2023-01-25T03:07:06;1.90;99.90
20035;DHT22;10178;48.034;9.800;2023-01-25T03:09:31;1.90;99.90
20035;DHT22;10178;48.034;9.800;2023-01-25T03:11:57;2.00;99.90
20035;DHT22;10178;48.034;9.800;2023-01-25T03:14:22;2.20;99.90
20035;DHT22;10178;48.034;9.800;2023-01-25T03:16:48;2.20;99.90
20035;DHT22;10178;48.034;9.800;2023-01-25T03:19:13;2.20;99.90
20035;DHT22;10178;48.034;9.800;2023-01-25T03:21:40;1.90;99.90
20035;DHT22;10178;48.034;9.800;2023-01-25T03:24:06;2.10;99.90
20035;DHT22;10178;48.034;9.800;2023-01-25T03:26:33;2.20;99.90
20035;DHT22;10178;48.034;9.800;2023-01-25T03:29:22;2.10;99.90
20035;DHT22;10178;48.034;9.800;2023-01-25T03:31:47;2.10;99.90
20035;DHT22;10178;48.034;9.800;2023-01-25T03:34:13;1.80;99.90
20035;DHT22;10178;48.034;9.800;2023-01-25T03:36:38;2.10;99.90
20035;DHT22;10178;48.034;9.800;2023-01-25T03:39:04;2.10;99.90
20035;DHT22;10178;48.034;9.800;2023-01-25T03:41:29;2.20;99.90
20035;DHT22;10178;48.034;9.800;2023-01-25T03:43:55;2.20;99.90
20035;DHT22;10178;48.034;9.800;2023-01-25T03:46:21;2.20;99.90
20035;DHT22;10178;48.034;9.800;2023-01-25T03:48:46;2.40;99.90
20035;DHT22;10178;48.034;9.800;2023-01-25T03:51:12;2.50;99.90
20035;DHT22;10178;48.034;9.800;2023-01-25T03:53:37;2.60;99.90
20035;DHT22;10178;48.034;9.800;2023-01-25T03:56:09;2.50;99.90
20035;DHT22;10178;48.034;9.800;2023-01-25T03:58:36;2.70;99.90
20035;DHT22;10178;48.034;9.800;2023-01-25T04:01:03;2.70;99.90
20035;DHT22;10178;48.034;9.800;2023-01-25T04:03:30;2.60;99.90
20035;DHT22;10178;48.034;9.800;2023-01-25T04:05:57;2.30;99.90
20035;DHT22;10178;48.034;9.800;2023-01-25T04:08:23;2.00;99.90
20035;DHT22;10178;48.034;9.800;2023-01-25T04:11:06;1.50;99.90
20035;DHT22;10178;48.034;9.800;2023-01-25T04:13:33;1.70;99.90
20035;DHT22;10178;48.034;9.800;2023-01-25T04:16:06;2.00;99.90
20035;DHT22;10178;48.034;9.800;2023-01-25T04:18:32;2.10;99.90
20035;DHT22;10178;48.034;9.800;2023-01-25T04:20:58;2.30;99.90
20035;DHT22;10178;48.034;9.800;2023-01-25T04:23:24;2.40;99.90
20035;DHT22;10178;48.034;9.800;2023-01-25T04:25:58;2.50;99.90
20035;DHT22;10178;48.034;9.800;2023-01-25T04:28:25;2.30;99.90
20035;DHT22;10178;48.034;9.800;2023-01-25T04:30:53;2.40;99.90
20035;DHT22;10178;48.034;9.800;2023-01-25T04:33:19;2.50;99.90
20035;DHT22;10178;48.034;9.800;2023-01-25T04:35:44;2.60;99.90
20035;DHT22;10178;48.034;9.800;2023-01-25T04:38:10;2.60;99.90
20035;DHT22;10178;48.034;9.800;2023-01-25T04:40:36;2.60;99.90
20035;DHT22;10178;48.034;9.800;2023-01-25T04:43:02;2.50;99.90
20035;DHT22;10178;48.034;9.800;2023-01-25T04:45:28;2.50;99.90
20035;DHT22;10178;48.034;9.800;2023-01-25T04:48:02;2.60;99.90
20035;DHT22;10178;48.034;9.800;2023-01-25T04:50:29;2.50;99.90
20035;DHT22;10178;48.034;9.800;2023-01-25T04:52:54;2.40;99.90
20035;DHT22;10178;48.034;9.800;2023-01-25T04:55:20;2.10;99.90
20035;DHT22;10178;48.034;9.800;2023-01-25T04:57:49;2.10;99.90
20035;DHT22;10178;48.034;9.800;2023-01-25T05:00:16;2.00;99.90
20035;DHT22;10178;48.034;9.800;2023-01-25T05:02:42;2.10;99.90
20035;DHT22;10178;48.034;9.800;2023-01-25T05:05:08;2.00;99.90
20035;DHT22;10178;48.034;9.800;2023-01-25T05:07:34;2.10;99.90
20035;DHT22;10178;48.034;9.800;2023-01-25T05:09:59;2.30;99.90
20035;DHT22;10178;48.034;9.800;2023-01-25T05:12:25;2.40;99.90
20035;DHT22;10178;48.034;9.800;2023-01-25T05:14:51;2.50;99.90
20035;DHT22;10178;48.034;9.800;2023-01-25T05:17:16;2.60;99.90
20035;DHT22;10178;48.034;9.800;2023-01-25T05:19:42;2.60;99.90
20035;DHT22;10178;48.034;9.800;2023-01-25T05:22:12;2.60;99.90
20035;DHT22;10178;48.034;9.800;2023-01-25T05:24:38;2.60;99.90
20035;DHT22;10178;48.034;9.800;2023-01-25T05:27:06;2.60;99.90
20035;DHT22;10178;48.034;9.800;2023-01-25T05:29:38;2.60;99.90
20035;DHT22;10178;48.034;9.800;2023-01-25T05:32:16;2.60;99.90
20035;DHT22;10178;48.034;9.800;2023-01-25T05:34:42;2.60;99.90
20035;DHT22;10178;48.034;9.800;2023-01-25T05:37:09;2.60;99.90
20035;DHT22;10178;48.034;9.800;2023-01-25T05:39:35;2.60;99.90
20035;DHT22;10178;48.034;9.800;2023-01-25T05:42:01;2.60;99.90
20035;DHT22;10178;48.034;9.800;2023-01-25T05:44:27;2.60;99.90
20035;DHT22;10178;48.034;9.800;2023-01-25T05:46:55;2.40;99.90
20035;DHT22;10178;48.034;9.800;2023-01-25T05:49:20;2.50;99.90
20035;DHT22;10178;48.034;9.800;2023-01-25T05:51:46;2.60;99.90
20035;DHT22;10178;48.034;9.800;2023-01-25T05:54:15;2.50;99.90
20035;DHT22;10178;48.034;9.800;2023-01-25T05:56:42;2.40;99.90
20035;DHT22;10178;48.034;9.800;2023-01-25T05:59:10;2.40;99.90
20035;DHT22;10178;48.034;9.800;2023-01-25T06:01:36;2.30;99.90
20035;DHT22;10178;48.034;9.800;2023-01-25T06:04:02;2.40;99.90
20035;DHT22;10178;48.034;9.800;2023-01-25T06:06:27;2.50;99.90
20035;DHT22;10178;48.034;9.800;2023-01-25T06:08:53;2.40;99.90
20035;DHT22;10178;48.034;9.800;2023-01-25T06:11:21;2.40;99.90
20035;DHT22;10178;48.034;9.800;2023-01-25T06:13:47;2.10;99.90
20035;DHT22;10178;48.034;9.800;2023-01-25T06:16:14;2.20;99.90
20035;DHT22;10178;48.034;9.800;2023-01-25T06:18:40;2.20;99.90
20035;DHT22;10178;48.034;9.800;2023-01-25T06:21:06;2.30;99.90
20035;DHT22;10178;48.034;9.800;2023-01-25T06:23:32;2.40;99.90
20035;DHT22;10178;48.034;9.800;2023-01-25T06:26:03;2.50;99.90
20035;DHT22;10178;48.034;9.800;2023-01-25T06:28:30;2.50;99.90
20035;DHT22;10178;48.034;9.800;2023-01-25T06:31:08;2.50;99.90
20035;DHT22;10178;48.034;9.800;2023-01-25T06:33:35;2.50;99.90
20035;DHT22;10178;48.034;9.800;2023-01-25T06:36:06;2.50;99.90
20035;DHT22;10178;48.034;9.800;2023-01-25T06:38:32;2.50;99.90
20035;DHT22;10178;48.034;9.800;2023-01-25T06:41:02;2.50;99.90
20035;DHT22;10178;48.034;9.800;2023-01-25T06:43:30;2.60;99.90
20035;DHT22;10178;48.034;9.800;2023-01-25T06:46:07;2.50;99.90
20035;DHT22;10178;48.034;9.800;2023-01-25T06:48:33;2.50;99.90
20035;DHT22;10178;48.034;9.800;2023-01-25T06:51:01;2.50;99.90
20035;DHT22;10178;48.034;9.800;2023-01-25T06:53:30;2.50;99.90
20035;DHT22;10178;48.034;9.800;2023-01-25T06:56:04;2.10;99.90
20035;DHT22;10178;48.034;9.800;2023-01-25T06:58:30;2.20;99.90
20035;DHT22;10178;48.034;9.800;2023-01-25T07:01:01;2.20;99.90
20035;DHT22;10178;48.034;9.800;2023-01-25T07:03:29;2.30;99.90
20035;DHT22;10178;48.034;9.800;2023-01-25T07:06:03;2.40;99.90
20035;DHT22;10178;48.034;9.800;2023-01-25T07:08:31;2.40;99.90
20035;DHT22;10178;48.034;9.800;2023-01-25T07:11:02;2.10;99.90
20035;DHT22;10178;48.034;9.800;2023-01-25T07:13:29;2.10;99.90
20035;DHT22;10178;48.034;9.800;2023-01-25T07:15:56;2.30;99.90
20035;DHT22;10178;48.034;9.800;2023-01-25T07:18:22;2.20;99.90
20035;DHT22;10178;48.034;9.800;2023-01-25T07:20:48;2.40;99.90
20035;DHT22;10178;48.034;9.800;2023-01-25T07:23:14;2.50;99.90
20035;DHT22;10178;48.034;9.800;2023-01-25T07:25:48;2.50;99.90
20035;DHT22;10178;48.034;9.800;2023-01-25T07:28:15;2.40;99.90
20035;DHT22;10178;48.034;9.800;2023-01-25T07:30:41;2.50;99.90
20035;DHT22;10178;48.034;9.800;2023-01-25T07:33:07;2.50;99.90
20035;DHT22;10178;48.034;9.800;2023-01-25T07:35:33;2.60;99.90
20035;DHT22;10178;48.034;9.800;2023-01-25T07:37:59;2.60;99.90
20035;DHT22;10178;48.034;9.800;2023-01-25T07:40:25;2.30;99.90
20035;DHT22;10178;48.034;9.800;2023-01-25T07:42:51;2.40;99.90
20035;DHT22;10178;48.034;9.800;2023-01-25T07:45:17;2.50;99.90
20035;DHT22;10178;48.034;9.800;2023-01-25T07:47:43;2.50;99.90
20035;DHT22;10178;48.034;9.800;2023-01-25T07:50:09;2.30;99.90
20035;DHT22;10178;48.034;9.800;2023-01-25T07:52:35;2.40;99.90
20035;DHT22;10178;48.034;9.800;2023-01-25T07:55:01;2.40;99.90
20035;DHT22;10178;48.034;9.800;2023-01-25T07:57:27;2.50;99.90
20035;DHT22;10178;48.034;9.800;2023-01-25T07:59:53;2.50;99.90
20035;DHT22;10178;48.034;9.800;2023-01-25T08:02:19;2.50;99.90
20035;DHT22;10178;48.034;9.800;2023-01-25T08:04:45;2.50;99.90
20035;DHT22;10178;48.034;9.800;2023-01-25T08:07:11;2.30;99.90
20035;DHT22;10178;48.034;9.800;2023-01-25T08:09:37;2.50;99.90
20035;DHT22;10178;48.034;9.800;2023-01-25T08:12:03;2.50;99.90
20035;DHT22;10178;48.034;9.800;2023-01-25T08:14:29;2.50;99.90
20035;DHT22;10178;48.034;9.800;2023-01-25T08:16:55;2.50;99.90
20035;DHT22;10178;48.034;9.800;2023-01-25T08:19:20;2.50;99.90
20035;DHT22;10178;48.034;9.800;2023-01-25T08:21:46;2.50;99.90
20035;DHT22;10178;48.034;9.800;2023-01-25T08:24:12;2.50;99.90
20035;DHT22;10178;48.034;9.800;2023-01-25T08:26:37;2.50;99.90
20035;DHT22;10178;48.034;9.800;2023-01-25T08:29:04;2.20;99.90
20035;DHT22;10178;48.034;9.800;2023-01-25T08:31:32;2.30;99.90
20035;DHT22;10178;48.034;9.800;2023-01-25T08:33:58;2.40;99.90
20035;DHT22;10178;48.034;9.800;2023-01-25T08:36:25;2.50;99.90
20035;DHT22;10178;48.034;9.800;2023-01-25T08:38:56;2.50;99.90
20035;DHT22;10178;48.034;9.800;2023-01-25T08:41:23;2.50;99.90
20035;DHT22;10178;48.034;9.800;2023-01-25T08:43:51;2.30;99.90
20035;DHT22;10178;48.034;9.800;2023-01-25T08:46:18;2.10;99.90
20035;DHT22;10178;48.034;9.800;2023-01-25T08:48:44;2.00;99.90
20035;DHT22;10178;48.034;9.800;2023-01-25T08:51:16;2.10;99.90
20035;DHT22;10178;48.034;9.800;2023-01-25T08:53:41;1.80;99.90
20035;DHT22;10178;48.034;9.800;2023-01-25T08:56:09;1.50;99.90
20035;DHT22;10178;48.034;9.800;2023-01-25T08:58:37;1.30;99.90
20035;DHT22;10178;48.034;9.800;2023-01-25T09:01:05;1.40;99.90
20035;DHT22;10178;48.034;9.800;2023-01-25T09:03:34;1.60;99.90
20035;DHT22;10178;48.034;9.800;2023-01-25T09:05:59;1.90;99.90
20035;DHT22;10178;48.034;9.800;2023-01-25T09:08:25;2.20;99.90
20035;DHT22;10178;48.034;9.800;2023-01-25T09:10:51;2.20;99.90
20035;DHT22;10178;48.034;9.800;2023-01-25T09:13:16;2.30;99.90
20035;DHT22;10178;48.034;9.800;2023-01-25T09:15:42;2.30;99.90
20035;DHT22;10178;48.034;9.800;2023-01-25T09:18:08;2.30;99.90
20035;DHT22;10178;48.034;9.800;2023-01-25T09:20:37;2.20;99.90
20035;DHT22;10178;48.034;9.800;2023-01-25T09:23:04;2.30;99.90
20035;DHT22;10178;48.034;9.800;2023-01-25T09:25:29;2.40;99.90
20035;DHT22;10178;48.034;9.800;2023-01-25T09:27:55;2.50;99.90
20035;DHT22;10178;48.034;9.800;2023-01-25T09:30:20;2.60;99.90
20035;DHT22;10178;48.034;9.800;2023-01-25T09:32:49;2.60;99.90
20035;DHT22;10178;48.034;9.800;2023-01-25T09:35:16;2.50;99.90
20035;DHT22;10178;48.034;9.800;2023-01-25T09:37:41;2.50;99.90
20035;DHT22;10178;48.034;9.800;2023-01-25T09:40:35;2.60;99.90
20035;DHT22;10178;48.034;9.800;2023-01-25T09:43:09;2.60;99.90
20035;DHT22;10178;48.034;9.800;2023-01-25T09:45:38;2.60;99.90
20035;DHT22;10178;48.034;9.800;2023-01-25T09:48:28;2.60;99.90
20035;DHT22;10178;48.034;9.800;2023-01-25T09:51:12;2.60;99.90
20035;DHT22;10178;48.034;9.800;2023-01-25T09:53:50;2.60;99.90
20035;DHT22;10178;48.034;9.800;2023-01-25T09:56:25;2.60;99.90
20035;DHT22;10178;48.034;9.800;2023-01-25T09:58:56;2.60;99.90
20035;DHT22;10178;48.034;9.800;2023-01-25T10:01:58;2.60;99.90
20035;DHT22;10178;48.034;9.800;2023-01-25T10:04:28;2.60;99.90
20035;DHT22;10178;48.034;9.800;2023-01-25T10:07:18;2.60;99.90
20035;DHT22;10178;48.034;9.800;2023-01-25T10:09:53;2.60;99.90
20035;DHT22;10178;48.034;9.800;2023-01-25T10:12:22;2.50;99.90
20035;DHT22;10178;48.034;9.800;2023-01-25T10:14:49;2.50;99.90
20035;DHT22;10178;48.034;9.800;2023-01-25T10:22:55;2.60;99.90
20035;DHT22;10178;48.034;9.800;2023-01-25T10:31:05;2.40;99.90
20035;DHT22;10178;48.034;9.800;2023-01-25T10:33:34;2.50;99.90
20035;DHT22;10178;48.034;9.800;2023-01-25T10:36:03;2.50;99.90
20035;DHT22;10178;48.034;9.800;2023-01-25T10:38:43;2.50;99.90
20035;DHT22;10178;48.034;9.800;2023-01-25T10:43:54;2.50;99.90
20035;DHT22;10178;48.034;9.800;2023-01-25T10:46:55;2.50;99.90
20035;DHT22;10178;48.034;9.800;2023-01-25T10:52:16;2.50;99.90
20035;DHT22;10178;48.034;9.800;2023-01-25T10:54:43;2.50;99.90
20035;DHT22;10178;48.034;9.800;2023-01-25T10:57:21;2.50;99.90
20035;DHT22;10178;48.034;9.800;2023-01-25T10:59:49;2.40;99.90
20035;DHT22;10178;48.034;9.800;2023-01-25T11:02:37;2.40;99.90
20035;DHT22;10178;48.034;9.800;2023-01-25T11:05:27;2.30;99.90
20035;DHT22;10178;48.034;9.800;2023-01-25T11:07:53;2.00;99.90
20035;DHT22;10178;48.034;9.800;2023-01-25T11:13:18;2.30;99.90
20035;DHT22;10178;48.034;9.800;2023-01-25T11:15:53;2.40;99.90
20035;DHT22;10178;48.034;9.800;2023-01-25T11:18:27;2.50;99.90
20035;DHT22;10178;48.034;9.800;2023-01-25T11:21:13;2.50;99.90
20035;DHT22;10178;48.034;9.800;2023-01-25T11:23:41;2.60;99.90
20035;DHT22;10178;48.034;9.800;2023-01-25T11:26:17;2.50;99.90
20035;DHT22;10178;48.034;9.800;2023-01-25T11:28:44;2.50;99.90
20035;DHT22;10178;48.034;9.800;2023-01-25T11:31:12;2.00;99.90
20035;DHT22;10178;48.034;9.800;2023-01-25T11:33:41;2.00;99.90
20035;DHT22;10178;48.034;9.800;2023-01-25T11:36:13;1.80;99.90
20035;DHT22;10178;48.034;9.800;2023-01-25T11:41:36;2.20;99.90
20035;DHT22;10178;48.034;9.800;2023-01-25T11:54:56;2.50;99.90
20035;DHT22;10178;48.034;9.800;2023-01-25T12:00:20;2.50;99.90
20035;DHT22;10178;48.034;9.800;2023-01-25T12:03:17;2.50;99.90
20035;DHT22;10178;48.034;9.800;2023-01-25T12:06:02;2.40;99.90
20035;DHT22;10178;48.034;9.800;2023-01-25T12:11:34;2.40;99.90
20035;DHT22;10178;48.034;9.800;2023-01-25T12:19:36;2.40;99.90
20035;DHT22;10178;48.034;9.800;2023-01-25T12:22:01;2.40;99.90
20035;DHT22;10178;48.034;9.800;2023-01-25T12:27:28;2.30;99.90
20035;DHT22;10178;48.034;9.800;2023-01-25T12:32:50;2.50;99.90
20035;DHT22;10178;48.034;9.800;2023-01-25T12:35:55;2.40;99.90
20035;DHT22;10178;48.034;9.800;2023-01-25T12:38:32;2.50;99.90
20035;DHT22;10178;48.034;9.800;2023-01-25T12:41:32;2.50;99.90
20035;DHT22;10178;48.034;9.800;2023-01-25T12:44:50;2.50;99.90
20035;DHT22;10178;48.034;9.800;2023-01-25T12:52:34;2.50;99.90
20035;DHT22;10178;48.034;9.800;2023-01-25T12:55:04;2.50;99.90
20035;DHT22;10178;48.034;9.800;2023-01-25T13:00:43;2.50;99.90
20035;DHT22;10178;48.034;9.800;2023-01-25T13:06:05;2.20;99.90
20035;DHT22;10178;48.034;9.800;2023-01-25T13:08:57;2.30;99.90
20035;DHT22;10178;48.034;9.800;2023-01-25T13:11:35;2.40;99.90
20035;DHT22;10178;48.034;9.800;2023-01-25T13:16:51;2.50;99.90
20035;DHT22;10178;48.034;9.800;2023-01-25T13:19:37;2.60;99.90
20035;DHT22;10178;48.034;9.800;2023-01-25T13:22:03;2.50;99.90
20035;DHT22;10178;48.034;9.800;2023-01-25T13:24:31;2.50;99.90
20035;DHT22;10178;48.034;9.800;2023-01-25T13:26:58;2.50;99.90
20035;DHT22;10178;48.034;9.800;2023-01-25T13:34:57;2.30;99.90
20035;DHT22;10178;48.034;9.800;2023-01-25T13:37:26;2.30;99.90
20035;DHT22;10178;48.034;9.800;2023-01-25T13:42:59;2.50;99.90
20035;DHT22;10178;48.034;9.800;2023-01-25T13:45:25;2.50;99.90
20035;DHT22;10178;48.034;9.800;2023-01-25T13:48:04;2.50;99.90
20035;DHT22;10178;48.034;9.800;2023-01-25T13:50:36;2.40;99.90
20035;DHT22;10178;48.034;9.800;2023-01-25T13:55:41;2.50;99.90
20035;DHT22;10178;48.034;9.800;2023-01-25T14:01:01;2.50;99.90
20035;DHT22;10178;48.034;9.800;2023-01-25T14:03:53;2.50;99.90
20035;DHT22;10178;48.034;9.800;2023-01-25T14:06:21;2.50;99.90
20035;DHT22;10178;48.034;9.800;2023-01-25T14:08:48;2.50;99.90
20035;DHT22;10178;48.034;9.800;2023-01-25T14:11:19;2.20;99.90
20035;DHT22;10178;48.034;9.800;2023-01-25T14:16:24;2.40;99.90
20035;DHT22;10178;48.034;9.800;2023-01-25T14:18:51;2.40;99.90
20035;DHT22;10178;48.034;9.800;2023-01-25T14:21:18;2.40;99.90
20035;DHT22;10178;48.034;9.800;2023-01-25T14:23:45;2.50;99.90
20035;DHT22;10178;48.034;9.800;2023-01-25T14:28:46;2.60;99.90
20035;DHT22;10178;48.034;9.800;2023-01-25T14:31:21;2.60;99.90
20035;DHT22;10178;48.034;9.800;2023-01-25T14:33:48;2.60;99.90
20035;DHT22;10178;48.034;9.800;2023-01-25T14:36:20;2.60;99.90
20035;DHT22;10178;48.034;9.800;2023-01-25T14:38:46;2.60;99.90
20035;DHT22;10178;48.034;9.800;2023-01-25T14:41:32;2.60;99.90
20035;DHT22;10178;48.034;9.800;2023-01-25T14:44:02;2.60;99.90
20035;DHT22;10178;48.034;9.800;2023-01-25T14:46:31;2.40;99.90
20035;DHT22;10178;48.034;9.800;2023-01-25T14:49:16;2.20;99.90
20035;DHT22;10178;48.034;9.800;2023-01-25T14:52:15;2.30;99.90
20035;DHT22;10178;48.034;9.800;2023-01-25T14:54:49;2.30;99.90
20035;DHT22;10178;48.034;9.800;2023-01-25T14:57:34;2.10;99.90
20035;DHT22;10178;48.034;9.800;2023-01-25T15:02:38;1.60;99.90
20035;DHT22;10178;48.034;9.800;2023-01-25T15:05:19;1.80;99.90
20035;DHT22;10178;48.034;9.800;2023-01-25T15:07:47;2.00;99.90
20035;DHT22;10178;48.034;9.800;2023-01-25T15:15:25;1.90;99.90
20035;DHT22;10178;48.034;9.800;2023-01-25T15:17:52;1.90;99.90
20035;DHT22;10178;48.034;9.800;2023-01-25T15:20:36;2.10;99.90
20035;DHT22;10178;48.034;9.800;2023-01-25T15:25:56;2.10;99.90
20035;DHT22;10178;48.034;9.800;2023-01-25T15:28:24;2.20;99.90
20035;DHT22;10178;48.034;9.800;2023-01-25T15:30:50;2.30;99.90
20035;DHT22;10178;48.034;9.800;2023-01-25T15:33:23;2.30;99.90
20035;DHT22;10178;48.034;9.800;2023-01-25T15:35:49;1.90;99.90
20035;DHT22;10178;48.034;9.800;2023-01-25T15:38:16;1.80;99.90
20035;DHT22;10178;48.034;9.800;2023-01-25T15:40:42;1.90;99.90
20035;DHT22;10178;48.034;9.800;2023-01-25T15:43:12;1.40;99.90
20035;DHT22;10178;48.034;9.800;2023-01-25T15:45:39;1.20;99.90
20035;DHT22;10178;48.034;9.800;2023-01-25T15:48:13;1.20;99.90
20035;DHT22;10178;48.034;9.800;2023-01-25T15:50:39;1.00;99.90
20035;DHT22;10178;48.034;9.800;2023-01-25T15:53:05;0.90;99.90
20035;DHT22;10178;48.034;9.800;2023-01-25T15:55:32;1.00;99.90
20035;DHT22;10178;48.034;9.800;2023-01-25T15:57:57;1.10;99.90
20035;DHT22;10178;48.034;9.800;2023-01-25T16:00:23;0.90;99.90
20035;DHT22;10178;48.034;9.800;2023-01-25T16:02:49;1.00;99.90
20035;DHT22;10178;48.034;9.800;2023-01-25T16:05:15;1.00;99.90
20035;DHT22;10178;48.034;9.800;2023-01-25T16:07:41;1.20;99.90
20035;DHT22;10178;48.034;9.800;2023-01-25T16:10:21;1.50;99.90
20035;DHT22;10178;48.034;9.800;2023-01-25T16:12:47;1.60;99.90
20035;DHT22;10178;48.034;9.800;2023-01-25T16:15:13;1.60;99.90
20035;DHT22;10178;48.034;9.800;2023-01-25T16:17:38;1.80;99.90
20035;DHT22;10178;48.034;9.800;2023-01-25T16:20:04;2.10;99.90
20035;DHT22;10178;48.034;9.800;2023-01-25T16:22:31;2.00;99.90
20035;DHT22;10178;48.034;9.800;2023-01-25T16:24:57;1.90;99.90
20035;DHT22;10178;48.034;9.800;2023-01-25T16:27:23;2.00;99.90
20035;DHT22;10178;48.034;9.800;2023-01-25T16:30:00;1.60;99.90
20035;DHT22;10178;48.034;9.800;2023-01-25T16:32:26;1.10;99.90
20035;DHT22;10178;48.034;9.800;2023-01-25T16:34:52;1.20;99.90
20035;DHT22;10178;48.034;9.800;2023-01-25T16:37:17;1.10;99.90
20035;DHT22;10178;48.034;9.800;2023-01-25T16:39:43;1.20;99.90
20035;DHT22;10178;48.034;9.800;2023-01-25T16:42:09;1.40;99.90
20035;DHT22;10178;48.034;9.800;2023-01-25T16:44:35;1.50;99.90
20035;DHT22;10178;48.034;9.800;2023-01-25T16:47:02;1.80;99.90
20035;DHT22;10178;48.034;9.800;2023-01-25T16:49:29;1.90;99.90
20035;DHT22;10178;48.034;9.800;2023-01-25T16:52:00;2.10;99.90
20035;DHT22;10178;48.034;9.800;2023-01-25T16:54:27;2.20;99.90
20035;DHT22;10178;48.034;9.800;2023-01-25T16:56:53;2.30;99.90
20035;DHT22;10178;48.034;9.800;2023-01-25T16:59:20;2.40;99.90
20035;DHT22;10178;48.034;9.800;2023-01-25T17:01:46;2.40;99.90
20035;DHT22;10178;48.034;9.800;2023-01-25T17:04:13;2.50;99.90
20035;DHT22;10178;48.034;9.800;2023-01-25T17:06:46;2.50;99.90
20035;DHT22;10178;48.034;9.800;2023-01-25T17:09:18;2.50;99.90
20035;DHT22;10178;48.034;9.800;2023-01-25T17:11:44;2.50;99.90
20035;DHT22;10178;48.034;9.800;2023-01-25T17:14:15;2.50;99.90
20035;DHT22;10178;48.034;9.800;2023-01-25T17:16:42;2.20;99.90
20035;DHT22;10178;48.034;9.800;2023-01-25T17:19:12;1.30;99.90
20035;DHT22;10178;48.034;9.800;2023-01-25T17:21:38;1.40;99.90
20035;DHT22;10178;48.034;9.800;2023-01-25T17:24:03;0.90;99.90
20035;DHT22;10178;48.034;9.800;2023-01-25T17:26:30;0.60;99.90
20035;DHT22;10178;48.034;9.800;2023-01-25T17:28:58;0.60;99.90
20035;DHT22;10178;48.034;9.800;2023-01-25T17:31:27;0.90;99.90
20035;DHT22;10178;48.034;9.800;2023-01-25T17:33:53;1.30;99.90
20035;DHT22;10178;48.034;9.800;2023-01-25T17:36:19;1.60;99.90
20035;DHT22;10178;48.034;9.800;2023-01-25T17:38:45;1.90;99.90
20035;DHT22;10178;48.034;9.800;2023-01-25T17:41:13;2.00;99.90
20035;DHT22;10178;48.034;9.800;2023-01-25T17:43:40;2.10;99.90
20035;DHT22;10178;48.034;9.800;2023-01-25T17:48:35;2.20;99.90
20035;DHT22;10178;48.034;9.800;2023-01-25T17:51:01;2.10;99.90